createdAt,value
2018-11-29T00:00:45.027Z,8.70
2018-11-29T00:03:13.044Z,8.70
2018-11-29T00:05:41.318Z,8.70
2018-11-29T00:08:09.312Z,8.70
2018-11-29T00:10:37.316Z,8.70
2018-11-29T00:13:05.435Z,8.70
2018-11-29T00:15:33.806Z,8.80
2018-11-29T00:18:01.888Z,8.70
2018-11-29T00:20:29.955Z,8.70
2018-11-29T00:22:57.963Z,8.70
2018-11-29T00:25:25.955Z,8.70
2018-11-29T00:27:53.959Z,8.60
2018-11-29T00:30:23.143Z,8.70
2018-11-29T00:32:54.766Z,8.70
2018-11-29T00:35:22.769Z,8.80
2018-11-29T00:37:50.772Z,8.80
2018-11-29T00:40:20.716Z,8.80
2018-11-29T00:42:48.769Z,8.80
2018-11-29T00:45:19.611Z,8.80
2018-11-29T00:47:47.908Z,8.70
2018-11-29T00:50:16.586Z,8.70
2018-11-29T00:52:45.370Z,8.70
2018-11-29T00:55:15.400Z,8.60
2018-11-29T00:57:43.427Z,8.60
2018-11-29T01:00:16.283Z,8.60
2018-11-29T01:02:44.278Z,8.60
2018-11-29T01:05:12.305Z,8.70
2018-11-29T01:07:40.400Z,8.70
2018-11-29T01:10:11.591Z,8.70
2018-11-29T01:12:39.636Z,8.70
2018-11-29T01:15:10.533Z,8.60
2018-11-29T01:17:38.629Z,8.60
2018-11-29T01:20:10.840Z,8.70
2018-11-29T01:22:38.828Z,8.80
2018-11-29T01:25:09.151Z,8.80
2018-11-29T01:27:37.210Z,8.90
2018-11-29T01:30:07.827Z,8.90
2018-11-29T01:32:35.810Z,8.90
2018-11-29T01:35:03.824Z,8.90
2018-11-29T01:37:31.840Z,8.90
2018-11-29T01:39:59.854Z,8.90
2018-11-29T01:42:27.867Z,8.90
2018-11-29T01:44:55.896Z,8.90
2018-11-29T01:47:23.896Z,9.00
2018-11-29T01:49:51.883Z,9.00
2018-11-29T01:52:19.872Z,9.00
2018-11-29T01:54:47.888Z,9.00
2018-11-29T01:57:15.894Z,9.00
2018-11-29T01:59:43.956Z,9.00
2018-11-29T02:02:11.945Z,9.00
2018-11-29T02:04:39.945Z,9.00
2018-11-29T02:07:07.971Z,9.10
2018-11-29T02:09:35.988Z,9.10
2018-11-29T02:12:03.997Z,9.10
2018-11-29T02:14:31.974Z,9.10
2018-11-29T02:16:59.976Z,9.00
2018-11-29T02:19:28.074Z,8.90
2018-11-29T02:21:56.062Z,8.90
2018-11-29T02:24:24.025Z,8.80
2018-11-29T02:26:52.017Z,8.80
2018-11-29T02:29:19.992Z,8.80
2018-11-29T02:31:48.000Z,8.80
2018-11-29T02:34:16.004Z,8.80
2018-11-29T02:36:43.985Z,8.80
2018-11-29T02:39:11.977Z,8.70
2018-11-29T02:41:40.030Z,8.70
2018-11-29T02:44:08.037Z,8.70
2018-11-29T02:46:36.057Z,8.70
2018-11-29T02:49:04.037Z,8.70
2018-11-29T02:51:32.037Z,8.60
2018-11-29T02:54:00.029Z,8.60
2018-11-29T02:56:28.029Z,8.70
2018-11-29T02:58:56.055Z,8.70
2018-11-29T03:01:24.041Z,8.90
2018-11-29T03:03:52.029Z,9.00
2018-11-29T03:06:20.033Z,9.00
2018-11-29T03:08:48.021Z,9.10
2018-11-29T03:11:16.033Z,9.10
2018-11-29T03:13:44.012Z,9.20
2018-11-29T03:16:12.650Z,9.20
2018-11-29T03:18:40.052Z,9.20
2018-11-29T03:21:08.048Z,9.20
2018-11-29T03:23:36.029Z,9.30
2018-11-29T03:26:04.324Z,9.30
2018-11-29T03:28:32.292Z,9.40
2018-11-29T03:31:00.311Z,9.40
2018-11-29T03:33:28.350Z,9.50
2018-11-29T03:35:56.350Z,9.60
2018-11-29T03:38:24.344Z,9.70
2018-11-29T03:40:52.901Z,9.80
2018-11-29T03:43:20.906Z,9.80
2018-11-29T03:45:48.880Z,9.80
2018-11-29T03:48:16.877Z,9.80
2018-11-29T03:50:44.877Z,9.80
2018-11-29T03:53:12.882Z,9.80
2018-11-29T03:55:40.877Z,9.90
2018-11-29T03:58:08.864Z,9.90
2018-11-29T04:00:36.839Z,9.90
2018-11-29T04:03:05.793Z,9.80
2018-11-29T04:05:33.797Z,9.80
2018-11-29T04:08:01.829Z,9.80
2018-11-29T04:10:29.809Z,9.70
2018-11-29T04:12:57.816Z,9.70
2018-11-29T04:15:25.827Z,9.70
2018-11-29T04:17:53.837Z,9.70
2018-11-29T04:20:21.845Z,9.70
2018-11-29T04:22:49.842Z,9.60
2018-11-29T04:25:17.818Z,9.60
2018-11-29T04:27:45.812Z,9.60
2018-11-29T04:30:14.689Z,9.60
2018-11-29T04:32:42.707Z,9.60
2018-11-29T04:35:11.029Z,9.70
2018-11-29T04:37:39.312Z,9.80
2018-11-29T04:40:12.516Z,9.80
2018-11-29T04:42:40.505Z,9.80
2018-11-29T04:45:11.438Z,9.80
2018-11-29T04:47:39.428Z,9.80
2018-11-29T04:50:07.596Z,9.80
2018-11-29T04:52:35.835Z,9.90
2018-11-29T04:55:03.847Z,10.00
2018-11-29T04:57:31.888Z,9.90
2018-11-29T05:00:00.133Z,9.90
2018-11-29T05:02:28.129Z,9.90
2018-11-29T05:04:56.132Z,9.90
2018-11-29T05:07:24.146Z,9.90
2018-11-29T05:09:52.195Z,9.80
2018-11-29T05:12:20.258Z,9.80
2018-11-29T05:14:48.258Z,9.80
2018-11-29T05:17:16.265Z,9.80
2018-11-29T05:19:44.244Z,9.80
2018-11-29T05:22:12.236Z,9.80
2018-11-29T05:24:40.241Z,9.80
2018-11-29T05:27:08.229Z,9.80
2018-11-29T05:29:36.225Z,9.80
2018-11-29T05:32:04.284Z,9.80
2018-11-29T05:34:32.282Z,9.80
2018-11-29T05:37:00.273Z,9.70
2018-11-29T05:39:28.268Z,9.70
2018-11-29T05:41:56.295Z,9.80
2018-11-29T05:44:24.289Z,9.80
2018-11-29T05:46:52.291Z,9.90
2018-11-29T05:49:20.341Z,9.90
2018-11-29T05:51:48.342Z,9.90
2018-11-29T05:54:16.316Z,9.90
2018-11-29T05:56:44.316Z,9.90
2018-11-29T05:59:13.469Z,9.90
2018-11-29T06:01:42.536Z,9.90
2018-11-29T06:04:10.515Z,9.90
2018-11-29T06:06:38.670Z,9.90
2018-11-29T06:09:08.671Z,9.90
2018-11-29T06:11:37.463Z,10.00
2018-11-29T06:14:06.825Z,9.90
2018-11-29T06:16:35.602Z,9.90
2018-11-29T06:19:03.947Z,9.80
2018-11-29T06:21:32.044Z,9.80
2018-11-29T06:24:00.088Z,9.80
2018-11-29T06:26:28.120Z,9.70
2018-11-29T06:28:56.105Z,9.70
2018-11-29T06:31:24.124Z,9.70
2018-11-29T06:33:52.425Z,9.80
2018-11-29T06:36:20.436Z,9.80
2018-11-29T06:38:48.484Z,9.80
2018-11-29T06:41:16.488Z,9.70
2018-11-29T06:43:44.588Z,9.70
2018-11-29T06:46:12.592Z,9.60
2018-11-29T06:48:40.631Z,9.80
2018-11-29T06:51:08.621Z,9.80
2018-11-29T06:53:42.160Z,9.80
2018-11-29T06:56:19.276Z,9.80
2018-11-29T06:58:47.422Z,9.70
2018-11-29T07:01:16.378Z,9.70
2018-11-29T07:03:44.435Z,9.80
2018-11-29T07:06:12.416Z,9.80
2018-11-29T07:08:40.392Z,9.70
2018-11-29T07:11:08.445Z,9.80
2018-11-29T07:13:36.478Z,9.80
2018-11-29T07:16:04.500Z,9.90
2018-11-29T07:18:32.542Z,9.90
2018-11-29T07:21:11.603Z,9.90
2018-11-29T07:23:39.593Z,9.90
2018-11-29T07:26:07.577Z,9.90
2018-11-29T07:28:35.583Z,9.90
2018-11-29T07:31:03.584Z,9.90
2018-11-29T07:33:31.581Z,9.90
2018-11-29T07:35:59.630Z,9.90
2018-11-29T07:38:27.634Z,9.90
2018-11-29T07:40:55.655Z,10.00
2018-11-29T07:43:23.737Z,10.10
2018-11-29T07:45:51.745Z,10.10
2018-11-29T07:48:19.760Z,10.10
2018-11-29T07:50:47.872Z,10.20
2018-11-29T07:53:16.318Z,10.20
2018-11-29T07:55:43.892Z,10.20
2018-11-29T07:58:11.909Z,10.30
2018-11-29T08:00:39.912Z,10.20
2018-11-29T08:03:07.923Z,10.20
2018-11-29T08:05:36.000Z,10.20
2018-11-29T08:08:04.289Z,10.20
2018-11-29T08:10:32.289Z,10.30
2018-11-29T08:13:00.343Z,10.30
2018-11-29T08:15:28.352Z,10.30
2018-11-29T08:17:56.335Z,10.30
2018-11-29T08:20:24.365Z,10.40
2018-11-29T08:22:52.384Z,10.30
2018-11-29T08:25:20.458Z,10.30
2018-11-29T08:27:48.435Z,10.30
2018-11-29T08:30:16.552Z,10.30
2018-11-29T08:32:44.543Z,10.30
2018-11-29T08:35:13.403Z,10.30
2018-11-29T08:37:42.795Z,10.30
2018-11-29T08:40:16.058Z,10.30
2018-11-29T08:42:44.040Z,10.30
2018-11-29T08:45:12.084Z,10.30
2018-11-29T08:47:40.117Z,10.30
2018-11-29T08:50:11.176Z,10.30
2018-11-29T08:52:39.711Z,10.30
2018-11-29T08:55:10.830Z,10.30
2018-11-29T08:57:38.890Z,10.40
2018-11-29T09:00:10.988Z,10.40
2018-11-29T09:02:39.031Z,10.50
2018-11-29T09:05:07.782Z,10.50
2018-11-29T09:07:35.781Z,10.50
2018-11-29T09:10:04.189Z,10.50
2018-11-29T09:12:32.192Z,10.60
2018-11-29T09:15:00.270Z,10.60
2018-11-29T09:17:28.285Z,10.60
2018-11-29T09:19:56.265Z,10.70
2018-11-29T09:22:24.253Z,10.80
2018-11-29T09:24:52.257Z,10.90
2018-11-29T09:27:34.927Z,11.10
2018-11-29T09:30:03.002Z,11.30
2018-11-29T09:32:31.005Z,11.60
2018-11-29T09:34:58.985Z,11.80
2018-11-29T09:37:26.986Z,12.00
2018-11-29T09:39:54.997Z,12.10
2018-11-29T09:42:22.996Z,12.30
2018-11-29T09:44:51.100Z,12.40
2018-11-29T09:47:19.108Z,12.60
2018-11-29T09:49:47.180Z,12.70
2018-11-29T09:52:15.317Z,12.80
2018-11-29T09:54:43.302Z,12.90
2018-11-29T09:57:11.320Z,12.90
2018-11-29T09:59:39.345Z,13.00
2018-11-29T10:02:07.341Z,13.20
2018-11-29T10:04:35.324Z,13.30
2018-11-29T10:07:03.342Z,13.40
2018-11-29T10:09:31.314Z,13.40
2018-11-29T10:11:59.371Z,13.50
2018-11-29T10:14:27.408Z,13.60
2018-11-29T10:16:55.392Z,13.70
2018-11-29T10:19:23.380Z,13.80
2018-11-29T10:21:51.401Z,13.90
2018-11-29T10:24:19.365Z,13.90
2018-11-29T10:26:47.336Z,14.00
2018-11-29T10:29:15.380Z,14.10
2018-11-29T10:31:43.405Z,14.20
2018-11-29T10:34:11.385Z,14.30
2018-11-29T10:36:39.369Z,14.30
2018-11-29T10:39:08.260Z,14.40
2018-11-29T10:41:36.292Z,14.40
2018-11-29T10:44:04.323Z,14.50
2018-11-29T10:46:32.328Z,14.50
2018-11-29T10:49:00.321Z,14.60
2018-11-29T10:51:28.349Z,14.70
2018-11-29T10:53:56.384Z,14.80
2018-11-29T10:56:24.391Z,14.80
2018-11-29T10:58:52.482Z,14.90
2018-11-29T11:01:25.920Z,14.90
2018-11-29T11:03:53.968Z,15.00
2018-11-29T11:06:22.996Z,15.00
2018-11-29T11:08:51.093Z,15.10
2018-11-29T11:11:19.088Z,15.00
2018-11-29T11:13:47.091Z,15.10
2018-11-29T11:16:15.181Z,15.10
2018-11-29T11:18:43.220Z,15.10
2018-11-29T11:21:11.221Z,15.10
2018-11-29T11:23:39.296Z,15.20
2018-11-29T11:26:07.318Z,15.20
2018-11-29T11:28:35.442Z,15.20
2018-11-29T11:31:03.466Z,15.10
2018-11-29T11:33:31.471Z,15.20
2018-11-29T11:35:59.488Z,15.20
2018-11-29T11:38:27.481Z,15.30
2018-11-29T11:40:55.457Z,15.40
2018-11-29T11:43:23.488Z,15.40
2018-11-29T11:45:52.107Z,15.40
2018-11-29T11:48:20.164Z,15.40
2018-11-29T11:50:48.173Z,15.40
2018-11-29T11:53:16.152Z,15.50
2018-11-29T11:55:44.220Z,15.60
2018-11-29T11:58:12.201Z,15.60
2018-11-29T12:00:40.309Z,15.70
2018-11-29T12:03:12.766Z,15.80
2018-11-29T12:05:40.931Z,15.80
2018-11-29T12:08:08.968Z,15.90
2018-11-29T12:10:37.556Z,16.00
2018-11-29T12:13:06.353Z,16.00
2018-11-29T12:15:34.594Z,16.00
2018-11-29T12:18:02.693Z,16.00
2018-11-29T12:20:30.745Z,16.10
2018-11-29T12:22:58.741Z,16.10
2018-11-29T12:25:26.803Z,16.10
2018-11-29T12:27:54.766Z,16.10
2018-11-29T12:30:26.945Z,16.10
2018-11-29T12:32:58.116Z,16.10
2018-11-29T12:35:26.134Z,16.10
2018-11-29T12:37:54.306Z,16.00
2018-11-29T12:40:22.397Z,16.00
2018-11-29T12:42:50.441Z,16.00
2018-11-29T12:45:18.429Z,16.00
2018-11-29T12:47:46.449Z,16.10
2018-11-29T12:50:15.493Z,16.10
2018-11-29T12:52:43.478Z,16.20
2018-11-29T12:55:12.348Z,16.20
2018-11-29T12:57:42.102Z,16.30
2018-11-29T13:00:14.148Z,16.30
2018-11-29T13:02:47.326Z,16.30
2018-11-29T13:05:15.344Z,16.30
2018-11-29T13:07:43.531Z,16.30
2018-11-29T13:10:12.039Z,16.30
2018-11-29T13:12:40.025Z,16.30
2018-11-29T13:15:11.099Z,16.30
2018-11-29T13:17:39.094Z,16.30
2018-11-29T13:20:12.511Z,16.30
2018-11-29T13:22:40.492Z,16.30
2018-11-29T13:25:11.124Z,16.40
2018-11-29T13:27:39.120Z,16.40
2018-11-29T13:30:11.267Z,16.30
2018-11-29T13:32:39.304Z,16.30
2018-11-29T13:35:16.817Z,16.30
2018-11-29T13:37:53.511Z,16.30
2018-11-29T13:40:21.530Z,16.30
2018-11-29T13:42:49.583Z,16.30
2018-11-29T13:45:17.583Z,16.40
2018-11-29T13:47:45.630Z,16.30
2018-11-29T13:50:15.596Z,16.40
2018-11-29T13:52:43.682Z,16.30
2018-11-29T13:55:12.553Z,16.40
2018-11-29T13:57:41.448Z,16.40
2018-11-29T14:00:13.672Z,16.30
2018-11-29T14:02:41.788Z,16.30
2018-11-29T14:05:10.428Z,16.20
2018-11-29T14:07:38.800Z,16.10
2018-11-29T14:10:09.646Z,16.10
2018-11-29T14:12:37.640Z,16.10
2018-11-29T14:15:08.460Z,16.10
2018-11-29T14:17:36.444Z,16.10
2018-11-29T14:20:05.040Z,16.10
2018-11-29T14:22:33.036Z,16.10
2018-11-29T14:25:01.044Z,16.10
2018-11-29T14:27:29.381Z,16.00
2018-11-29T14:29:57.389Z,16.00
2018-11-29T14:32:25.442Z,16.00
2018-11-29T14:34:53.558Z,15.90
2018-11-29T14:37:21.560Z,15.90
2018-11-29T14:39:49.582Z,15.90
2018-11-29T14:42:17.580Z,15.90
2018-11-29T14:44:45.809Z,15.90
2018-11-29T14:47:13.808Z,15.80
2018-11-29T14:49:41.954Z,15.70
2018-11-29T14:52:09.941Z,15.70
2018-11-29T14:54:37.932Z,15.70
2018-11-29T14:57:05.928Z,15.80
2018-11-29T14:59:33.968Z,15.80
2018-11-29T15:02:02.057Z,15.70
2018-11-29T15:04:30.056Z,15.60
2018-11-29T15:06:58.074Z,15.60
2018-11-29T15:09:26.097Z,15.50
2018-11-29T15:11:54.128Z,15.50
2018-11-29T15:14:22.102Z,15.50
2018-11-29T15:16:50.093Z,15.50
2018-11-29T15:19:18.105Z,15.40
2018-11-29T15:21:46.144Z,15.30
2018-11-29T15:24:14.146Z,15.20
2018-11-29T15:26:42.189Z,15.10
2018-11-29T15:29:11.262Z,15.00
2018-11-29T15:31:39.249Z,15.00
2018-11-29T15:34:07.236Z,14.80
2018-11-29T15:36:35.252Z,14.70
2018-11-29T15:39:04.142Z,14.60
2018-11-29T15:41:32.173Z,14.50
2018-11-29T15:44:00.194Z,14.40
2018-11-29T15:46:28.232Z,14.30
2018-11-29T15:48:56.215Z,14.20
2018-11-29T15:51:24.184Z,14.10
2018-11-29T15:53:52.189Z,14.10
2018-11-29T15:56:27.182Z,14.00
2018-11-29T15:58:56.495Z,13.90
2018-11-29T16:01:24.859Z,13.80
2018-11-29T16:03:55.840Z,13.70
2018-11-29T16:06:26.027Z,13.60
2018-11-29T16:08:54.525Z,13.40
2018-11-29T16:11:23.304Z,13.30
2018-11-29T16:13:54.638Z,13.30
2018-11-29T16:16:23.023Z,13.20
2018-11-29T16:18:51.028Z,13.10
2018-11-29T16:21:19.573Z,13.00
2018-11-29T16:23:47.832Z,13.00
2018-11-29T16:26:16.247Z,12.90
2018-11-29T16:28:44.568Z,12.80
2018-11-29T16:31:12.889Z,12.70
2018-11-29T16:33:41.506Z,12.70
2018-11-29T16:36:10.526Z,12.70
2018-11-29T16:38:38.811Z,12.60
2018-11-29T16:41:06.957Z,12.60
2018-11-29T16:43:36.892Z,12.50
2018-11-29T16:46:05.125Z,12.40
2018-11-29T16:48:33.251Z,12.40
2018-11-29T16:51:01.403Z,12.30
2018-11-29T16:53:29.537Z,12.30
2018-11-29T16:55:57.570Z,12.20
2018-11-29T16:58:27.329Z,12.10
2018-11-29T17:00:55.456Z,12.00
2018-11-29T17:03:23.528Z,12.00
2018-11-29T17:05:51.540Z,12.00
2018-11-29T17:08:19.544Z,11.90
2018-11-29T17:10:47.559Z,11.90
2018-11-29T17:13:16.960Z,11.90
2018-11-29T17:15:44.980Z,11.80
2018-11-29T17:18:12.979Z,11.70
2018-11-29T17:20:41.131Z,11.60
2018-11-29T17:23:10.329Z,11.60
2018-11-29T17:25:38.316Z,11.50
2018-11-29T17:28:06.736Z,11.40
2018-11-29T17:30:35.141Z,11.40
2018-11-29T17:33:03.140Z,11.30
2018-11-29T17:35:31.133Z,11.30
2018-11-29T17:37:59.798Z,11.20
2018-11-29T17:40:27.789Z,11.20
2018-11-29T17:42:59.392Z,11.10
2018-11-29T17:45:28.420Z,11.10
2018-11-29T17:47:57.887Z,11.10
2018-11-29T17:50:30.012Z,11.10
2018-11-29T17:52:58.009Z,11.00
2018-11-29T17:55:26.018Z,11.00
2018-11-29T17:57:54.013Z,11.00
2018-11-29T18:00:37.781Z,11.00
2018-11-29T18:03:06.954Z,10.90
2018-11-29T18:05:34.959Z,10.90
2018-11-29T18:08:02.958Z,10.80
2018-11-29T18:10:32.832Z,10.80
2018-11-29T18:13:13.063Z,10.80
2018-11-29T18:15:41.171Z,10.80
2018-11-29T18:18:09.210Z,10.80
2018-11-29T18:20:37.382Z,10.70
2018-11-29T18:23:06.180Z,10.70
2018-11-29T18:25:34.177Z,10.70
2018-11-29T18:28:02.348Z,10.70
2018-11-29T18:30:30.388Z,10.70
2018-11-29T18:32:58.398Z,10.60
2018-11-29T18:35:26.473Z,10.60
2018-11-29T18:37:54.472Z,10.50
2018-11-29T18:40:22.563Z,10.50
2018-11-29T18:42:55.801Z,10.40
2018-11-29T18:45:23.831Z,10.40
2018-11-29T18:47:52.520Z,10.40
2018-11-29T18:50:21.412Z,10.30
2018-11-29T18:52:49.439Z,10.30
2018-11-29T18:55:17.554Z,10.40
2018-11-29T18:57:45.866Z,10.40
2018-11-29T19:00:21.988Z,10.40
2018-11-29T19:02:49.972Z,10.40
2018-11-29T19:05:17.972Z,10.40
2018-11-29T19:07:46.005Z,10.50
2018-11-29T19:10:16.184Z,10.50
2018-11-29T19:12:57.419Z,10.40
2018-11-29T19:15:25.513Z,10.40
2018-11-29T19:17:53.564Z,10.40
2018-11-29T19:20:21.541Z,10.40
2018-11-29T19:22:49.516Z,10.40
2018-11-29T19:25:18.377Z,10.30
2018-11-29T19:27:46.602Z,10.30
2018-11-29T19:30:23.488Z,10.30
2018-11-29T19:32:55.085Z,10.30
2018-11-29T19:35:23.177Z,10.20
2018-11-29T19:37:51.112Z,10.20
2018-11-29T19:40:20.112Z,10.10
2018-11-29T19:42:49.074Z,10.10
2018-11-29T19:45:17.089Z,10.10
2018-11-29T19:47:45.080Z,10.10
2018-11-29T19:50:16.037Z,10.10
2018-11-29T19:52:45.268Z,10.20
2018-11-29T19:55:15.011Z,10.20
2018-11-29T19:57:43.027Z,10.20
2018-11-29T20:00:12.053Z,10.30
2018-11-29T20:02:40.231Z,10.30
2018-11-29T20:05:09.654Z,10.30
2018-11-29T20:07:37.637Z,10.30
2018-11-29T20:10:11.500Z,10.30
2018-11-29T20:12:39.573Z,10.30
2018-11-29T20:15:20.155Z,10.30
2018-11-29T20:17:48.161Z,10.30
2018-11-29T20:20:16.182Z,10.30
2018-11-29T20:22:44.156Z,10.30
2018-11-29T20:25:15.384Z,10.30
2018-11-29T20:27:43.521Z,10.30
2018-11-29T20:30:12.869Z,10.30
2018-11-29T20:32:40.984Z,10.30
2018-11-29T20:35:09.513Z,10.30
2018-11-29T20:37:37.532Z,10.30
2018-11-29T20:40:14.371Z,10.30
2018-11-29T20:42:42.431Z,10.30
2018-11-29T20:45:14.195Z,10.30
2018-11-29T20:47:42.335Z,10.20
2018-11-29T20:50:14.688Z,10.30
2018-11-29T20:52:40.100Z,10.30
2018-11-29T20:55:12.700Z,10.20
2018-11-29T20:57:40.696Z,10.20
2018-11-29T21:00:11.396Z,10.20
2018-11-29T21:02:39.531Z,10.20
2018-11-29T21:05:09.198Z,10.20
2018-11-29T21:07:37.212Z,10.20
2018-11-29T21:10:11.420Z,10.20
2018-11-29T21:12:39.497Z,10.10
2018-11-29T21:15:07.513Z,10.20
2018-11-29T21:17:35.630Z,10.10
2018-11-29T21:20:04.287Z,10.10
2018-11-29T21:22:32.270Z,10.10
2018-11-29T21:25:00.408Z,10.00
2018-11-29T21:27:28.405Z,10.00
2018-11-29T21:29:56.412Z,9.90
2018-11-29T21:32:24.420Z,9.90
2018-11-29T21:34:52.851Z,9.90
2018-11-29T21:37:21.047Z,9.90
2018-11-29T21:39:49.078Z,9.90
2018-11-29T21:42:17.095Z,9.90
2018-11-29T21:44:45.110Z,9.90
2018-11-29T21:47:13.093Z,9.90
2018-11-29T21:49:41.093Z,9.90
2018-11-29T21:52:09.114Z,9.90
2018-11-29T21:54:37.107Z,9.80
2018-11-29T21:57:05.104Z,9.80
2018-11-29T21:59:35.520Z,9.70
2018-11-29T22:02:01.120Z,9.70
2018-11-29T22:04:29.366Z,9.70
2018-11-29T22:06:57.361Z,9.80
2018-11-29T22:09:25.363Z,9.80
2018-11-29T22:11:53.613Z,9.80
2018-11-29T22:14:21.957Z,9.90
2018-11-29T22:16:49.944Z,9.90
2018-11-29T22:19:17.941Z,9.90
2018-11-29T22:21:46.018Z,9.90
2018-11-29T22:24:14.036Z,9.90
2018-11-29T22:26:42.016Z,9.90
2018-11-29T22:29:10.001Z,9.90
2018-11-29T22:31:38.019Z,10.00
2018-11-29T22:34:06.221Z,10.00
2018-11-29T22:36:34.265Z,10.00
2018-11-29T22:39:02.306Z,10.00
2018-11-29T22:41:30.300Z,10.00
2018-11-29T22:43:58.320Z,9.90
2018-11-29T22:46:26.344Z,10.00
2018-11-29T22:48:54.344Z,10.00
2018-11-29T22:51:22.425Z,10.00
2018-11-29T22:53:50.433Z,10.10
2018-11-29T22:56:18.416Z,10.00
2018-11-29T22:58:46.483Z,10.00
2018-11-29T23:01:19.980Z,10.00
2018-11-29T23:03:47.995Z,9.90
2018-11-29T23:06:16.005Z,9.90
2018-11-29T23:08:43.984Z,9.90
2018-11-29T23:11:11.992Z,9.90
2018-11-29T23:13:39.984Z,9.90
2018-11-29T23:16:07.992Z,9.90
2018-11-29T23:18:35.969Z,9.90
2018-11-29T23:21:03.997Z,9.90
2018-11-29T23:23:32.005Z,9.90
2018-11-29T23:25:59.986Z,9.90
2018-11-29T23:28:28.068Z,9.90
2018-11-29T23:30:56.056Z,9.90
2018-11-29T23:33:24.033Z,9.90
2018-11-29T23:35:52.125Z,9.90
2018-11-29T23:38:20.118Z,9.90
2018-11-29T23:40:48.194Z,9.90
2018-11-29T23:43:16.221Z,9.90
2018-11-29T23:45:44.252Z,9.90
2018-11-29T23:48:12.257Z,10.00
2018-11-29T23:50:40.340Z,10.00
2018-11-29T23:53:08.386Z,10.00
2018-11-29T23:55:36.403Z,10.10
2018-11-29T23:58:04.392Z,10.10
